Time;durP1;ratioP1;P1;durP2;ratioP2;P2;SDS_P1;SDS_P2;PMS_P1;PMS_P2;Temp;Humidity;BMP_temperature;BMP_pressure;BME280_temperature;BME280_humidity;BME280_pressure;Samples;Min_cycle;Max_cycle;Signal;HPM_P1;HPM_P2
2023/04/21 00:01:17;;;;;;;;;;;;;;;9.09;70.54;97640.25;5067873;28;20269;-55
2023/04/21 00:03:46;;;;;;;;;;;;;;;9.09;70.47;97640.25;5066678;28;19928;-54
2023/04/21 00:06:21;;;;;;;;;;;;;;;9.07;70.47;97646.00;5065804;28;19926;-54
2023/04/21 00:08:49;;;;;;;;;;;;;;;9.09;70.42;97643.78;5063669;28;19927;-55
2023/04/21 00:11:17;;;;;;;;;;;;;;;9.07;70.50;97637.88;5067116;28;19921;-55
2023/04/21 00:13:44;;;;;;;;;;;;;;;9.07;70.65;97631.66;5058573;28;19920;-55
2023/04/21 00:16:12;;;;;;;;;;;;;;;9.05;70.61;97628.44;5062047;28;19925;-55
2023/04/21 00:18:40;;;;;;;;;;;;;;;8.99;70.82;97629.66;5071424;28;19920;-55
2023/04/21 00:21:09;;;;;;;;;;;;;;;8.90;70.96;97622.28;5083069;28;19924;-55
2023/04/21 00:23:37;;;;;;;;;;;;;;;8.86;71.07;97632.13;5067084;28;19921;-55
2023/04/21 00:26:05;;;;;;;;;;;;;;;8.84;71.37;97623.53;5057291;28;19966;-54
2023/04/21 00:28:33;;;;;;;;;;;;;;;8.95;70.96;97613.25;5062780;28;20523;-54
2023/04/21 00:31:00;;;;;;;;;;;;;;;8.84;71.25;97615.38;5062708;28;19970;-54
2023/04/21 00:33:28;;;;;;;;;;;;;;;8.75;71.40;97613.72;5066815;28;19940;-54
2023/04/21 00:35:58;;;;;;;;;;;;;;;8.74;71.80;97606.69;5051995;28;19921;-54
2023/04/21 00:38:28;;;;;;;;;;;;;;;8.67;71.70;97607.09;5066906;28;19924;-55
2023/04/21 00:40:56;;;;;;;;;;;;;;;8.62;72.03;97597.19;5063321;28;19920;-55
2023/04/21 00:43:25;;;;;;;;;;;;;;;8.58;72.32;97592.72;5044896;28;19924;-54
2023/04/21 00:45:54;;;;;;;;;;;;;;;8.58;72.20;97593.50;5064030;28;19920;-54
2023/04/21 00:48:22;;;;;;;;;;;;;;;8.58;72.59;97598.13;5065117;28;19975;-54
2023/04/21 00:50:49;;;;;;;;;;;;;;;8.57;72.50;97601.91;5061881;28;19931;-54
2023/04/21 00:53:17;;;;;;;;;;;;;;;8.53;72.71;97598.25;5065897;28;19970;-54
2023/04/21 00:55:47;;;;;;;;;;;;;;;8.60;72.67;97595.91;5067430;28;19948;-55
2023/04/21 00:58:15;;;;;;;;;;;;;;;8.54;72.82;97591.72;5067225;28;20296;-55
2023/04/21 01:00:43;;;;;;;;;;;;;;;8.55;72.72;97596.81;5061359;28;19936;-55
2023/04/21 01:03:11;;;;;;;;;;;;;;;8.55;72.95;97598.72;5055466;28;19932;-55
2023/04/21 01:05:41;;;;;;;;;;;;;;;8.58;72.87;97595.41;5063924;28;19987;-54
2023/04/21 01:08:12;;;;;;;;;;;;;;;8.56;72.87;97601.13;5064330;28;20384;-56
2023/04/21 01:10:39;;;;;;;;;;;;;;;8.55;72.83;97599.53;5062232;28;19964;-55
2023/04/21 01:13:09;;;;;;;;;;;;;;;8.52;73.02;97591.19;5066909;28;19928;-55
2023/04/21 01:15:36;;;;;;;;;;;;;;;8.59;72.69;97599.72;5060601;28;19924;-55
2023/04/21 01:18:04;;;;;;;;;;;;;;;8.50;72.88;97601.53;5059818;28;19920;-54
2023/04/21 01:20:33;;;;;;;;;;;;;;;8.53;73.04;97600.94;5066029;28;19921;-59
2023/04/21 01:23:02;;;;;;;;;;;;;;;8.74;72.33;97601.28;5061810;28;19978;-55
2023/04/21 01:25:30;;;;;;;;;;;;;;;8.57;72.64;97596.50;5055655;28;19920;-55
2023/04/21 01:27:58;;;;;;;;;;;;;;;8.49;72.82;97605.38;5051325;28;20289;-55
2023/04/21 01:30:26;;;;;;;;;;;;;;;8.42;73.01;97605.00;5061889;28;19980;-55
2023/04/21 01:32:54;;;;;;;;;;;;;;;8.40;73.27;97613.41;5057922;28;19936;-54
2023/04/21 01:35:22;;;;;;;;;;;;;;;8.34;73.44;97615.38;5071312;28;19929;-59
2023/04/21 01:37:50;;;;;;;;;;;;;;;8.33;73.45;97616.50;5057030;28;20370;-55
2023/04/21 01:40:20;;;;;;;;;;;;;;;8.35;73.33;97619.69;5066200;28;19920;-54
2023/04/21 01:42:48;;;;;;;;;;;;;;;8.23;73.86;97626.72;5065761;28;20278;-54
2023/04/21 01:45:16;;;;;;;;;;;;;;;8.17;73.98;97615.22;5068333;28;19927;-56
2023/04/21 01:47:44;;;;;;;;;;;;;;;8.19;73.79;97623.03;5070659;28;20258;-54
2023/04/21 01:50:13;;;;;;;;;;;;;;;8.10;74.00;97631.06;5066188;28;19921;-55
2023/04/21 01:52:42;;;;;;;;;;;;;;;8.07;74.08;97631.66;5067601;28;19928;-55
2023/04/21 01:55:10;;;;;;;;;;;;;;;8.04;74.08;97624.97;5064043;28;19921;-56
2023/04/21 01:57:39;;;;;;;;;;;;;;;7.98;74.50;97628.03;5069516;28;19928;-54
2023/04/21 02:00:08;;;;;;;;;;;;;;;7.98;74.03;97628.03;5062234;28;19924;-55
2023/04/21 02:02:42;;;;;;;;;;;;;;;7.84;74.59;97628.84;5062945;28;19926;-54
2023/04/21 02:05:13;;;;;;;;;;;;;;;7.84;74.98;97628.84;5062905;28;19928;-54
2023/04/21 02:07:41;;;;;;;;;;;;;;;7.82;74.92;97625.63;5061921;28;20331;-55
2023/04/21 02:10:10;;;;;;;;;;;;;;;7.80;74.96;97625.16;5065075;28;19927;-58
2023/04/21 02:12:39;;;;;;;;;;;;;;;7.78;75.43;97624.66;5061491;28;19921;-56
2023/04/21 02:15:10;;;;;;;;;;;;;;;7.75;75.38;97619.03;5067199;28;19920;-57
2023/04/21 02:17:37;;;;;;;;;;;;;;;7.73;75.25;97616.63;5062906;28;20319;-55
2023/04/21 02:20:06;;;;;;;;;;;;;;;7.74;75.52;97618.22;5064861;28;19925;-54
2023/04/21 02:22:34;;;;;;;;;;;;;;;7.79;75.32;97626.25;5059052;28;19956;-55
2023/04/21 02:25:05;;;;;;;;;;;;;;;7.74;75.33;97615.53;5059907;28;20377;-57
2023/04/21 02:27:34;;;;;;;;;;;;;;;7.75;75.40;97619.03;5081471;28;19959;-54
2023/04/21 02:30:05;;;;;;;;;;;;;;;7.79;75.30;97620.03;5063598;28;20376;-54
2023/04/21 02:32:33;;;;;;;;;;;;;;;7.76;75.62;97615.22;5079334;28;19982;-57
2023/04/21 02:35:01;;;;;;;;;;;;;;;7.69;75.34;97620.22;5038665;28;19983;-54
2023/04/21 02:37:30;;;;;;;;;;;;;;;7.70;75.60;97611.81;5063728;28;19974;-54
2023/04/21 02:39:58;;;;;;;;;;;;;;;7.72;75.66;97615.00;5054189;28;19920;-54
2023/04/21 02:42:26;;;;;;;;;;;;;;;7.72;75.76;97603.41;5055096;28;19921;-57
2023/04/21 02:44:53;;;;;;;;;;;;;;;7.67;75.76;97608.91;5059587;28;19925;-56
2023/04/21 02:47:23;;;;;;;;;;;;;;;7.60;75.88;97601.19;5064564;28;19960;-55
2023/04/21 02:49:51;;;;;;;;;;;;;;;7.57;76.05;97601.81;5058094;28;19929;-55
2023/04/21 02:52:20;;;;;;;;;;;;;;;7.52;76.30;97599.19;5061835;28;19921;-54
2023/04/21 02:54:47;;;;;;;;;;;;;;;7.50;76.51;97602.19;5065912;28;19932;-55
2023/04/21 02:57:15;;;;;;;;;;;;;;;7.52;76.58;97601.91;5068137;28;19924;-54
2023/04/21 02:59:43;;;;;;;;;;;;;;;7.52;76.71;97601.91;5065291;28;19920;-55
2023/04/21 03:02:11;;;;;;;;;;;;;;;7.56;76.93;97606.41;5062554;28;19920;-57
2023/04/21 03:04:40;;;;;;;;;;;;;;;7.59;76.90;97608.50;5063281;28;19920;-54
2023/04/21 03:07:11;;;;;;;;;;;;;;;7.62;76.79;97604.41;5059385;28;19920;-57
2023/04/21 03:09:39;;;;;;;;;;;;;;;7.60;76.99;97612.00;5066056;28;19999;-54
2023/04/21 03:12:07;;;;;;;;;;;;;;;7.57;76.71;97609.91;5070380;28;20274;-55
2023/04/21 03:14:35;;;;;;;;;;;;;;;7.53;76.75;97607.00;5071187;28;19932;-54
2023/04/21 03:17:03;;;;;;;;;;;;;;;7.56;76.79;97606.41;5065108;28;19921;-54
2023/04/21 03:19:31;;;;;;;;;;;;;;;7.57;76.69;97612.63;5067071;28;19932;-55
2023/04/21 03:22:00;;;;;;;;;;;;;;;7.56;76.75;97608.28;5065790;28;19927;-56
2023/04/21 03:24:29;;;;;;;;;;;;;;;7.57;76.89;97604.50;5067022;28;19955;-54
2023/04/21 03:26:57;;;;;;;;;;;;;;;7.55;76.75;97610.19;5073281;28;19920;-55
2023/04/21 03:29:24;;;;;;;;;;;;;;;7.55;77.02;97604.00;5078895;28;19921;-54
2023/04/21 03:31:52;;;;;;;;;;;;;;;7.58;76.67;97606.09;5068114;28;19924;-55
2023/04/21 03:34:21;;;;;;;;;;;;;;;7.57;76.50;97613.41;5061692;28;19951;-54
2023/04/21 03:36:49;;;;;;;;;;;;;;;7.57;76.58;97615.31;5067231;28;19920;-54
2023/04/21 03:39:18;;;;;;;;;;;;;;;7.52;76.79;97613.50;5060879;28;19920;-56
2023/04/21 03:41:48;;;;;;;;;;;;;;;7.66;77.14;97613.50;5082636;28;19925;-56
2023/04/21 03:44:16;;;;;;;;;;;;;;;7.60;76.94;97617.41;5059215;28;19925;-54
2023/04/21 03:46:44;;;;;;;;;;;;;;;7.63;77.11;97614.13;5054755;28;19951;-55
2023/04/21 03:49:11;;;;;;;;;;;;;;;7.64;76.82;97612.22;5070991;28;19970;-56
2023/04/21 03:51:39;;;;;;;;;;;;;;;7.60;76.95;97612.81;5068142;28;20414;-55
2023/04/21 03:54:08;;;;;;;;;;;;;;;7.65;76.53;97620.03;5064477;28;19951;-54
2023/04/21 03:56:37;;;;;;;;;;;;;;;7.55;77.12;97617.50;5068845;28;19927;-58
2023/04/21 03:59:05;;;;;;;;;;;;;;;7.60;76.51;97615.50;5059427;28;20312;-54
2023/04/21 04:01:33;;;;;;;;;;;;;;;7.51;76.82;97613.78;5086602;28;19957;-54
2023/04/21 04:04:01;;;;;;;;;;;;;;;7.45;76.70;97610.38;5073938;28;19926;-54
2023/04/21 04:06:29;;;;;;;;;;;;;;;7.43;76.76;97615.28;5075938;28;19991;-54
2023/04/21 04:15:59;;;;;;;;;;;;;;;7.31;77.00;97615.78;5076192;28;19956;-55
2023/04/21 04:18:27;;;;;;;;;;;;;;;7.35;76.95;97614.09;5082754;28;19925;-54
2023/04/21 04:20:54;;;;;;;;;;;;;;;7.35;76.90;97621.41;5080102;28;19925;-55
2023/04/21 04:23:22;;;;;;;;;;;;;;;7.37;76.96;97612.97;5079096;28;19924;-55
2023/04/21 04:25:51;;;;;;;;;;;;;;;7.37;76.71;97618.38;5082357;28;19932;-54
2023/04/21 04:28:21;;;;;;;;;;;;;;;7.38;76.31;97615.38;5086068;28;19920;-55
2023/04/21 04:30:49;;;;;;;;;;;;;;;7.40;76.18;97618.56;5070200;28;19927;-54
2023/04/21 04:33:17;;;;;;;;;;;;;;;7.33;76.13;97618.16;5089211;28;19931;-55
2023/04/21 04:35:46;;;;;;;;;;;;;;;7.31;76.12;97618.47;5083615;28;20368;-56
2023/04/21 04:38:14;;;;;;;;;;;;;;;7.32;76.04;97620.06;5089045;28;19920;-54
2023/04/21 04:40:42;;;;;;;;;;;;;;;7.29;76.32;97609.84;5075892;28;20369;-55
2023/04/21 04:43:10;;;;;;;;;;;;;;;7.33;76.56;97616.28;5064892;28;19927;-55
2023/04/21 04:45:39;;;;;;;;;;;;;;;7.37;75.96;97618.38;5072264;28;19950;-55
2023/04/21 04:48:10;;;;;;;;;;;;;;;7.50;74.93;97623.00;5080610;28;19925;-54
2023/04/21 04:50:45;;;;;;;;;;;;;;;7.27;75.54;97617.47;5060939;28;20384;-55
2023/04/21 04:53:13;;;;;;;;;;;;;;;7.18;76.37;97621.94;5084515;28;19924;-55
2023/04/21 04:55:40;;;;;;;;;;;;;;;7.20;76.22;97622.44;5066285;28;19921;-57
2023/04/21 04:58:08;;;;;;;;;;;;;;;7.26;76.59;97615.06;5060283;28;19975;-54
2023/04/21 05:00:36;;;;;;;;;;;;;;;7.26;76.35;97615.06;5066550;28;19920;-59
2023/04/21 05:03:05;;;;;;;;;;;;;;;7.28;76.72;97615.56;5054646;28;19927;-54
2023/04/21 05:05:35;;;;;;;;;;;;;;;7.32;76.76;97613.88;5060096;28;19933;-55
2023/04/21 05:08:03;;;;;;;;;;;;;;;7.27;76.57;97617.47;5063106;28;19959;-55
2023/04/21 05:10:31;;;;;;;;;;;;;;;7.31;76.71;97620.38;5065136;28;20369;-54
2023/04/21 05:12:59;;;;;;;;;;;;;;;7.37;76.29;97623.78;5059305;28;19921;-54
2023/04/21 05:15:27;;;;;;;;;;;;;;;7.47;76.46;97623.63;5064479;28;20003;-54
2023/04/21 05:17:55;;;;;;;;;;;;;;;7.47;76.43;97629.03;5064896;28;19927;-54
2023/04/21 05:20:25;;;;;;;;;;;;;;;7.53;76.27;97639.44;5065732;28;19920;-56
2023/04/21 05:22:52;;;;;;;;;;;;;;;7.61;75.77;97629.81;5053614;28;20366;-55
2023/04/21 05:25:20;;;;;;;;;;;;;;;7.65;75.56;97627.34;5057797;28;19928;-54
2023/04/21 05:27:50;;;;;;;;;;;;;;;7.76;75.39;97632.25;5065433;28;19920;-54
2023/04/21 05:30:18;;;;;;;;;;;;;;;7.81;74.88;97634.84;5063786;28;20158;-55
2023/04/21 05:32:46;;;;;;;;;;;;;;;8.10;74.53;97634.56;5055849;28;20361;-54
2023/04/21 05:35:14;;;;;;;;;;;;;;;8.16;74.15;97627.16;5064966;28;19964;-56
2023/04/21 05:37:43;;;;;;;;;;;;;;;8.20;74.07;97630.03;5066868;28;19928;-54
2023/04/21 05:40:11;;;;;;;;;;;;;;;8.30;73.45;97624.41;5057946;28;20385;-55
2023/04/21 05:42:39;;;;;;;;;;;;;;;8.21;73.72;97620.84;5066184;28;19928;-55
2023/04/21 05:45:07;;;;;;;;;;;;;;;8.24;73.74;97621.00;5057695;28;19920;-56
2023/04/21 05:47:36;;;;;;;;;;;;;;;8.29;73.77;97620.91;5059645;28;20281;-55
2023/04/21 05:50:04;;;;;;;;;;;;;;;8.42;73.34;97623.94;5056040;28;19927;-56
2023/04/21 05:52:31;;;;;;;;;;;;;;;8.42;73.38;97626.66;5058437;28;19928;-54
2023/04/21 05:55:01;;;;;;;;;;;;;;;8.48;73.20;97625.44;5064778;28;20018;-55
2023/04/21 05:57:28;;;;;;;;;;;;;;;8.63;73.06;97622.38;5065734;28;19978;-55
2023/04/21 05:59:57;;;;;;;;;;;;;;;8.89;72.50;97630.69;5068920;28;19921;-55
2023/04/21 06:02:25;;;;;;;;;;;;;;;9.10;71.95;97636.44;5055935;28;19944;-55
2023/04/21 06:04:53;;;;;;;;;;;;;;;9.31;71.43;97632.13;5069350;28;20006;-55
2023/04/21 06:07:21;;;;;;;;;;;;;;;9.41;71.00;97631.84;5062305;28;19933;-54
2023/04/21 06:09:49;;;;;;;;;;;;;;;9.53;70.76;97633.19;5056293;28;20278;-54
2023/04/21 06:12:19;;;;;;;;;;;;;;;9.56;70.47;97632.59;5058804;28;19926;-58
2023/04/21 06:14:46;;;;;;;;;;;;;;;9.66;70.20;97635.03;5061674;28;19927;-55
2023/04/21 06:17:16;;;;;;;;;;;;;;;9.75;70.39;97637.75;5067150;28;19921;-57
2023/04/21 06:19:44;;;;;;;;;;;;;;;9.82;70.36;97643.56;5061009;28;19925;-54
2023/04/21 06:22:12;;;;;;;;;;;;;;;9.86;70.16;97645.34;5053126;28;19924;-54
2023/04/21 06:24:39;;;;;;;;;;;;;;;9.84;69.98;97642.13;5065631;28;19924;-55
2023/04/21 06:27:10;;;;;;;;;;;;;;;9.78;69.92;97629.81;5067679;28;19931;-55
2023/04/21 06:29:39;;;;;;;;;;;;;;;9.88;70.04;97643.09;5070108;28;19924;-54
2023/04/21 06:32:07;;;;;;;;;;;;;;;9.90;70.36;97632.72;5074524;28;19924;-54
2023/04/21 06:34:35;;;;;;;;;;;;;;;9.98;70.30;97628.47;5070780;28;19928;-55
2023/04/21 06:37:03;;;;;;;;;;;;;;;10.17;70.18;97636.34;5072538;28;20361;-55
2023/04/21 06:39:31;;;;;;;;;;;;;;;10.30;69.24;97629.22;5073975;28;20392;-54
2023/04/21 06:41:59;;;;;;;;;;;;;;;10.33;69.18;97625.84;5065027;28;19932;-55
2023/04/21 06:44:28;;;;;;;;;;;;;;;10.51;69.18;97624.00;5063147;28;20457;-54
2023/04/21 06:46:57;;;;;;;;;;;;;;;10.73;68.36;97616.50;5071200;28;19928;-55
2023/04/21 06:49:25;;;;;;;;;;;;;;;11.14;67.78;97628.00;5070267;28;20358;-56
2023/04/21 06:51:53;;;;;;;;;;;;;;;11.47;66.39;97622.81;5058373;28;19920;-55
2023/04/21 06:54:21;;;;;;;;;;;;;;;11.75;65.38;97620.50;5071007;28;19927;-55
2023/04/21 06:56:50;;;;;;;;;;;;;;;11.97;63.68;97625.72;5062094;28;19948;-55
2023/04/21 06:59:18;;;;;;;;;;;;;;;11.93;63.55;97624.78;5070601;28;20369;-55
2023/04/21 07:01:47;;;;;;;;;;;;;;;11.78;63.78;97623.38;5061976;28;19927;-54
2023/04/21 07:04:17;;;;;;;;;;;;;;;11.60;64.37;97629.97;5062433;28;19928;-55
2023/04/21 07:06:45;;;;;;;;;;;;;;;11.34;65.16;97630.03;5062504;28;20384;-55
2023/04/21 07:09:12;;;;;;;;;;;;;;;11.47;65.20;97633.72;5057634;28;19925;-54
2023/04/21 07:11:40;;;;;;;;;;;;;;;11.54;64.90;97629.34;5058256;28;19932;-54
2023/04/21 07:14:09;;;;;;;;;;;;;;;11.90;63.88;97636.31;5063578;28;19928;-55
2023/04/21 07:16:37;;;;;;;;;;;;;;;12.21;63.17;97632.50;5061943;28;20259;-55
2023/04/21 07:19:05;;;;;;;;;;;;;;;12.32;62.79;97631.78;5072053;28;19924;-54
2023/04/21 07:21:35;;;;;;;;;;;;;;;12.42;62.56;97630.63;5070712;28;19928;-55
2023/04/21 07:24:04;;;;;;;;;;;;;;;12.53;61.99;97639.22;5067290;28;20014;-58
2023/04/21 07:26:33;;;;;;;;;;;;;;;12.56;61.47;97642.06;5061523;28;19963;-55
2023/04/21 07:29:01;;;;;;;;;;;;;;;12.70;61.21;97643.75;5074893;28;19924;-55
2023/04/21 07:31:28;;;;;;;;;;;;;;;12.93;60.30;97633.28;5071157;28;19924;-56
2023/04/21 07:33:56;;;;;;;;;;;;;;;13.09;59.14;97624.16;5071639;28;20038;-55
2023/04/21 07:36:25;;;;;;;;;;;;;;;13.23;58.84;97626.66;5072968;28;19927;-55
2023/04/21 07:38:54;;;;;;;;;;;;;;;13.29;58.63;97624.50;5061579;28;19925;-55
2023/04/21 07:41:22;;;;;;;;;;;;;;;13.31;58.57;97622.22;5070377;28;20332;-56
2023/04/21 07:43:50;;;;;;;;;;;;;;;13.39;58.96;97623.31;5070919;28;19935;-55
2023/04/21 07:46:20;;;;;;;;;;;;;;;13.38;57.99;97616.25;5069296;28;19928;-55
2023/04/21 07:48:48;;;;;;;;;;;;;;;13.44;58.43;97621.16;5073360;28;19920;-56
2023/04/21 07:51:17;;;;;;;;;;;;;;;13.50;57.94;97622.53;5068140;28;19928;-55
2023/04/21 07:53:44;;;;;;;;;;;;;;;13.56;57.56;97618.44;5067354;28;19932;-55
2023/04/21 07:56:14;;;;;;;;;;;;;;;13.75;57.02;97626.13;5069360;28;19947;-55
2023/04/21 07:58:42;;;;;;;;;;;;;;;13.94;56.95;97616.56;5061301;28;19927;-55
2023/04/21 08:01:10;;;;;;;;;;;;;;;14.10;56.81;97623.75;5052471;28;19929;-55
2023/04/21 08:03:38;;;;;;;;;;;;;;;14.19;55.40;97620.13;5073217;28;19932;-56
2023/04/21 08:06:07;;;;;;;;;;;;;;;14.19;54.85;97618.19;5054551;28;19921;-58
2023/04/21 08:08:36;;;;;;;;;;;;;;;14.16;54.70;97624.31;5065680;28;19928;-56
2023/04/21 08:11:04;;;;;;;;;;;;;;;14.36;54.33;97620.69;5068491;28;20636;-54
2023/04/21 08:13:34;;;;;;;;;;;;;;;14.57;53.66;97612.38;5072420;28;19936;-57
2023/04/21 08:16:03;;;;;;;;;;;;;;;14.54;52.62;97610.34;5059238;28;20377;-57
2023/04/21 08:18:31;;;;;;;;;;;;;;;14.72;52.47;97608.13;5070436;28;19978;-56
2023/04/21 08:20:59;;;;;;;;;;;;;;;14.87;51.71;97609.34;5062497;28;19933;-55
2023/04/21 08:23:29;;;;;;;;;;;;;;;14.89;51.57;97607.06;5053669;28;19921;-56
2023/04/21 08:26:02;;;;;;;;;;;;;;;14.74;51.27;97605.03;5059131;28;20015;-55
2023/04/21 08:28:30;;;;;;;;;;;;;;;14.79;51.34;97610.28;5073227;28;19927;-55
2023/04/21 08:31:00;;;;;;;;;;;;;;;14.32;51.84;97618.97;5068049;28;19960;-54
2023/04/21 08:33:29;;;;;;;;;;;;;;;14.11;52.43;97621.81;5063863;28;19928;-55
2023/04/21 08:35:57;;;;;;;;;;;;;;;14.37;52.50;97607.81;5069033;28;19963;-56
2023/04/21 08:38:34;;;;;;;;;;;;;;;14.56;51.67;97613.50;5055877;28;19929;-57
2023/04/21 08:41:02;;;;;;;;;;;;;;;14.65;51.27;97607.94;5070806;28;19977;-55
2023/04/21 08:43:30;;;;;;;;;;;;;;;14.73;51.87;97603.47;5062503;28;20428;-56
2023/04/21 08:46:00;;;;;;;;;;;;;;;14.97;51.06;97614.34;5067917;28;19920;-55
2023/04/21 08:48:28;;;;;;;;;;;;;;;15.12;51.14;97607.31;5067749;28;19924;-56
2023/04/21 08:50:56;;;;;;;;;;;;;;;15.26;50.16;97609.66;5062852;28;19926;-56
2023/04/21 08:53:24;;;;;;;;;;;;;;;15.30;49.52;97605.88;5069953;28;20262;-59
2023/04/21 08:55:52;;;;;;;;;;;;;;;15.10;49.67;97612.34;5071609;28;19925;-55
2023/04/21 08:58:36;;;;;;;;;;;;;;;15.25;49.54;97613.53;5059204;28;19978;-56
2023/04/21 09:01:05;;;;;;;;;;;;;;;15.32;49.16;97611.00;5066008;28;19920;-58
2023/04/21 09:03:33;;;;;;;;;;;;;;;15.45;49.19;97601.59;5079808;28;19927;-57
2023/04/21 09:06:02;;;;;;;;;;;;;;;15.63;48.43;97605.59;5068875;28;20374;-64
2023/04/21 09:08:31;;;;;;;;;;;;;;;15.76;48.00;97600.03;5070391;28;19943;-55
2023/04/21 09:11:00;;;;;;;;;;;;;;;15.81;48.14;97610.75;5062826;28;19966;-56
2023/04/21 09:13:31;;;;;;;;;;;;;;;15.96;48.19;97604.47;5069976;28;20015;-55
2023/04/21 09:16:00;;;;;;;;;;;;;;;15.91;47.84;97612.94;5063476;28;19920;-55
2023/04/21 09:18:34;;;;;;;;;;;;;;;15.79;47.96;97604.81;5066158;28;19920;-55
2023/04/21 09:21:06;;;;;;;;;;;;;;;16.02;48.19;97600.31;5055367;28;19921;-56
2023/04/21 09:23:44;;;;;;;;;;;;;;;16.08;47.00;97601.63;5062643;28;19921;-56
2023/04/21 09:26:12;;;;;;;;;;;;;;;16.21;46.91;97599.59;5058242;28;20336;-55
2023/04/21 09:28:41;;;;;;;;;;;;;;;16.38;46.93;97603.91;5064571;28;20311;-55
2023/04/21 09:31:16;;;;;;;;;;;;;;;16.62;46.28;97600.94;5068455;28;20011;-56
2023/04/21 09:33:46;;;;;;;;;;;;;;;16.46;46.05;97594.69;5068845;28;20402;-56
2023/04/21 09:36:26;;;;;;;;;;;;;;;16.15;46.06;97590.84;5063918;28;19928;-55
2023/04/21 09:38:58;;;;;;;;;;;;;;;16.45;45.56;97585.66;5081959;28;19928;-58
2023/04/21 09:41:46;;;;;;;;;;;;;;;16.67;44.95;97595.19;5044188;28;19921;-55
2023/04/21 09:44:16;;;;;;;;;;;;;;;16.86;45.26;97594.41;5067075;28;20335;-56
2023/04/21 09:46:48;;;;;;;;;;;;;;;16.94;45.06;97587.94;5054268;28;19927;-57
2023/04/21 09:49:22;;;;;;;;;;;;;;;17.03;44.23;97590.44;5069348;28;19920;-56
2023/04/21 09:51:50;;;;;;;;;;;;;;;16.91;44.39;97585.09;5058195;28;19927;-56
2023/04/21 09:54:21;;;;;;;;;;;;;;;16.86;44.24;97597.16;5070788;28;19928;-56
2023/04/21 09:56:52;;;;;;;;;;;;;;;16.88;44.00;97591.31;5056592;28;19975;-61
2023/04/21 09:59:21;;;;;;;;;;;;;;;16.76;44.51;97590.28;5054203;28;20370;-56
2023/04/21 10:01:50;;;;;;;;;;;;;;;16.36;44.73;97595.25;5062128;28;19924;-55
2023/04/21 10:04:18;;;;;;;;;;;;;;;16.32;45.54;97586.94;5065146;28;19929;-55
2023/04/21 10:06:48;;;;;;;;;;;;;;;16.24;45.53;97588.72;5057659;28;20419;-55
2023/04/21 10:09:16;;;;;;;;;;;;;;;16.26;45.82;97590.31;5067565;28;19921;-56
2023/04/21 10:11:44;;;;;;;;;;;;;;;16.48;44.52;97581.41;5055623;28;20336;-56
2023/04/21 10:14:12;;;;;;;;;;;;;;;16.87;44.32;97570.50;5053726;28;20422;-55
2023/04/21 10:16:42;;;;;;;;;;;;;;;17.00;43.93;97569.22;5067121;28;19924;-57
2023/04/21 10:19:23;;;;;;;;;;;;;;;17.28;43.78;97564.28;5069679;28;20007;-56
2023/04/21 10:21:52;;;;;;;;;;;;;;;17.44;43.33;97569.69;5071354;28;19921;-55
2023/04/21 10:24:20;;;;;;;;;;;;;;;17.57;42.89;97559.28;5062994;28;19956;-56
2023/04/21 10:26:51;;;;;;;;;;;;;;;17.72;42.62;97566.66;5052095;28;19967;-55
2023/04/21 10:29:28;;;;;;;;;;;;;;;17.79;41.47;97557.78;5058542;28;20726;-55
2023/04/21 10:32:01;;;;;;;;;;;;;;;17.86;41.71;97555.13;5065437;28;19928;-57
2023/04/21 10:34:36;;;;;;;;;;;;;;;17.95;41.22;97560.34;5069645;28;19920;-56
2023/04/21 10:37:14;;;;;;;;;;;;;;;17.95;41.78;97546.59;5070129;28;20016;-55
2023/04/21 10:39:43;;;;;;;;;;;;;;;18.08;42.02;97556.25;5068273;28;19920;-56
2023/04/21 10:42:21;;;;;;;;;;;;;;;18.08;42.00;97556.25;5073034;28;20337;-56
2023/04/21 10:44:54;;;;;;;;;;;;;;;18.05;40.88;97551.47;5066034;28;19920;-55
2023/04/21 10:47:25;;;;;;;;;;;;;;;17.95;40.02;97549.34;5055563;28;19924;-55
2023/04/21 10:49:54;;;;;;;;;;;;;;;18.06;40.80;97547.59;5066518;28;19939;-56
2023/04/21 10:52:24;;;;;;;;;;;;;;;18.01;39.95;97547.91;5067999;28;19924;-59
2023/04/21 10:55:15;;;;;;;;;;;;;;;18.11;40.06;97544.53;5059409;28;19931;-61
2023/04/21 10:57:44;;;;;;;;;;;;;;;18.22;40.48;97534.50;5041614;28;20019;-55
2023/04/21 11:00:14;;;;;;;;;;;;;;;18.22;39.76;97539.19;5062529;28;20277;-55
2023/04/21 11:02:43;;;;;;;;;;;;;;;18.28;40.03;97538.50;5050911;28;20243;-57
2023/04/21 11:05:12;;;;;;;;;;;;;;;18.33;39.94;97534.66;5054360;28;20232;-55
2023/04/21 11:07:41;;;;;;;;;;;;;;;18.34;39.10;97527.97;5052057;28;19931;-56
2023/04/21 11:10:10;;;;;;;;;;;;;;;17.98;39.35;97529.41;5061200;28;19921;-56
2023/04/21 11:12:38;;;;;;;;;;;;;;;17.94;40.00;97525.78;5065190;28;19925;-55
2023/04/21 11:15:07;;;;;;;;;;;;;;;18.12;40.35;97518.63;5048614;28;19925;-55
2023/04/21 11:17:37;;;;;;;;;;;;;;;18.22;40.20;97523.50;5060467;28;21069;-56
2023/04/21 11:20:05;;;;;;;;;;;;;;;18.30;40.38;97511.41;5066680;28;19928;-55
2023/04/21 11:22:33;;;;;;;;;;;;;;;18.27;40.31;97506.66;5067286;28;19974;-55
2023/04/21 11:25:03;;;;;;;;;;;;;;;18.33;40.01;97509.91;5062059;28;19927;-57
2023/04/21 11:27:33;;;;;;;;;;;;;;;18.42;39.53;97504.88;5067176;28;19921;-56
2023/04/21 11:30:03;;;;;;;;;;;;;;;18.33;39.87;97505.19;5072042;28;19920;-57
2023/04/21 11:32:30;;;;;;;;;;;;;;;18.43;39.74;97502.94;5074098;28;20374;-57
2023/04/21 11:34:58;;;;;;;;;;;;;;;18.59;40.17;97498.06;5070447;28;19927;-57
2023/04/21 11:37:26;;;;;;;;;;;;;;;18.58;39.07;97502.75;5070256;28;19932;-56
2023/04/21 11:39:58;;;;;;;;;;;;;;;18.67;39.31;97493.41;5060555;28;20043;-57
2023/04/21 11:42:27;;;;;;;;;;;;;;;18.75;39.21;97495.09;5068229;28;19924;-56
2023/04/21 11:44:58;;;;;;;;;;;;;;;18.80;39.25;97492.84;5070397;28;19924;-56
2023/04/21 11:47:26;;;;;;;;;;;;;;;18.67;38.79;97491.47;5062369;28;20384;-56
2023/04/21 11:49:55;;;;;;;;;;;;;;;18.53;38.91;97488.53;5053846;28;20296;-55
2023/04/21 11:52:23;;;;;;;;;;;;;;;18.68;39.55;97495.81;5062871;28;19931;-55
2023/04/21 11:54:54;;;;;;;;;;;;;;;18.81;39.67;97485.38;5060324;28;20377;-58
2023/04/21 11:57:22;;;;;;;;;;;;;;;18.87;39.45;97488.59;5064001;28;19952;-56
2023/04/21 11:59:52;;;;;;;;;;;;;;;18.96;38.76;97489.06;5058892;28;20385;-56
2023/04/21 12:02:24;;;;;;;;;;;;;;;19.00;38.72;97484.38;5068822;28;19928;-57
2023/04/21 12:05:00;;;;;;;;;;;;;;;19.05;38.85;97479.34;5059363;28;19925;-60
2023/04/21 12:07:31;;;;;;;;;;;;;;;19.11;38.60;97480.56;5068977;28;19931;-56
2023/04/21 12:09:59;;;;;;;;;;;;;;;18.99;39.00;97489.09;5053113;28;19921;-55
2023/04/21 12:12:28;;;;;;;;;;;;;;;19.15;39.02;97480.63;5057766;28;19928;-55
2023/04/21 12:14:58;;;;;;;;;;;;;;;19.17;38.75;97472.75;5072533;28;20350;-56
2023/04/21 12:17:26;;;;;;;;;;;;;;;19.19;38.65;97475.94;5062967;28;19962;-56
2023/04/21 12:19:54;;;;;;;;;;;;;;;19.33;38.28;97478.84;5061879;28;19929;-53
2023/04/21 12:22:22;;;;;;;;;;;;;;;19.21;38.48;97475.56;5075231;28;20015;-54
2023/04/21 12:24:50;;;;;;;;;;;;;;;19.23;38.19;97478.72;5062698;28;19991;-54
2023/04/21 12:27:19;;;;;;;;;;;;;;;19.18;36.29;97460.59;5056021;28;19927;-62
2023/04/21 12:29:47;;;;;;;;;;;;;;;19.19;36.69;97467.69;5073834;28;19920;-62
2023/04/21 12:32:16;;;;;;;;;;;;;;;19.22;37.08;97472.41;5072113;28;19928;-61
2023/04/21 12:34:46;;;;;;;;;;;;;;;19.22;37.23;97464.16;5075489;28;20025;-55
2023/04/21 12:37:14;;;;;;;;;;;;;;;19.29;36.57;97464.25;5070164;28;19927;-60
2023/04/21 12:39:42;;;;;;;;;;;;;;;19.31;37.44;97461.88;5071594;28;19927;-56
2023/04/21 12:42:10;;;;;;;;;;;;;;;19.33;37.25;97469.75;5067416;28;19931;-55
2023/04/21 12:44:38;;;;;;;;;;;;;;;19.36;36.58;97458.00;5080215;28;20387;-54
2023/04/21 12:47:06;;;;;;;;;;;;;;;19.41;36.24;97448.59;5063589;28;19974;-55
2023/04/21 12:49:35;;;;;;;;;;;;;;;19.46;35.42;97453.75;5077908;28;19927;-54
2023/04/21 12:52:04;;;;;;;;;;;;;;;19.38;36.17;97461.94;5063375;28;20251;-54
2023/04/21 12:54:32;;;;;;;;;;;;;;;19.28;36.62;97465.41;5052923;28;19920;-55
2023/04/21 12:57:00;;;;;;;;;;;;;;;19.43;36.07;97449.78;5074258;28;19921;-53
2023/04/21 12:59:28;;;;;;;;;;;;;;;19.49;36.53;97445.50;5076991;28;19924;-54
2023/04/21 13:01:57;;;;;;;;;;;;;;;19.57;35.61;97447.16;5062016;28;19921;-55
2023/04/21 13:04:27;;;;;;;;;;;;;;;19.52;36.00;97450.25;5070787;28;19996;-54
2023/04/21 13:06:57;;;;;;;;;;;;;;;19.47;35.62;97458.09;5062513;28;19929;-58
2023/04/21 13:09:25;;;;;;;;;;;;;;;19.44;35.60;97453.34;5052265;28;19920;-55